sensor_id;sensor_type;location;lat;lon;timestamp;P1;durP1;ratioP1;P2;durP2;ratioP2
60098;SDS011;62818;49.394;8.686;2022-08-19T00:00:24;14.68;;;12.40;;
60098;SDS011;62818;49.394;8.686;2022-08-19T00:01:28;13.70;;;12.30;;
60098;SDS011;62818;49.394;8.686;2022-08-19T00:02:30;17.15;;;12.30;;
60098;SDS011;62818;49.394;8.686;2022-08-19T00:03:30;20.02;;;12.02;;
60098;SDS011;62818;49.394;8.686;2022-08-19T00:04:32;14.00;;;12.10;;
60098;SDS011;62818;49.394;8.686;2022-08-19T00:05:39;14.75;;;11.73;;
60098;SDS011;62818;49.394;8.686;2022-08-19T00:06:42;16.17;;;12.48;;
60098;SDS011;62818;49.394;8.686;2022-08-19T00:07:45;15.15;;;12.27;;
60098;SDS011;62818;49.394;8.686;2022-08-19T00:08:48;16.55;;;12.32;;
60098;SDS011;62818;49.394;8.686;2022-08-19T00:09:51;17.30;;;12.77;;
60098;SDS011;62818;49.394;8.686;2022-08-19T00:10:53;15.67;;;12.80;;
60098;SDS011;62818;49.394;8.686;2022-08-19T00:11:59;13.93;;;11.85;;
60098;SDS011;62818;49.394;8.686;2022-08-19T00:13:00;16.48;;;12.70;;
60098;SDS011;62818;49.394;8.686;2022-08-19T00:14:07;15.35;;;12.75;;
60098;SDS011;62818;49.394;8.686;2022-08-19T00:15:13;15.05;;;13.38;;
60098;SDS011;62818;49.394;8.686;2022-08-19T00:16:18;13.90;;;12.32;;
60098;SDS011;62818;49.394;8.686;2022-08-19T00:17:22;18.05;;;12.48;;
60098;SDS011;62818;49.394;8.686;2022-08-19T00:18:24;15.13;;;13.20;;
60098;SDS011;62818;49.394;8.686;2022-08-19T00:19:27;14.82;;;12.82;;
60098;SDS011;62818;49.394;8.686;2022-08-19T00:20:30;16.25;;;12.35;;
60098;SDS011;62818;49.394;8.686;2022-08-19T00:21:35;15.65;;;12.73;;
60098;SDS011;62818;49.394;8.686;2022-08-19T00:22:42;23.42;;;13.57;;
60098;SDS011;62818;49.394;8.686;2022-08-19T00:23:45;17.63;;;13.32;;
60098;SDS011;62818;49.394;8.686;2022-08-19T00:24:48;16.27;;;13.75;;
60098;SDS011;62818;49.394;8.686;2022-08-19T00:25:51;16.05;;;13.27;;
60098;SDS011;62818;49.394;8.686;2022-08-19T00:26:52;14.70;;;12.23;;
60098;SDS011;62818;49.394;8.686;2022-08-19T00:27:52;16.57;;;13.23;;
60098;SDS011;62818;49.394;8.686;2022-08-19T00:28:59;14.95;;;13.10;;
60098;SDS011;62818;49.394;8.686;2022-08-19T00:30:03;14.90;;;13.30;;
60098;SDS011;62818;49.394;8.686;2022-08-19T00:31:06;17.27;;;12.50;;
60098;SDS011;62818;49.394;8.686;2022-08-19T00:32:10;17.05;;;13.07;;
60098;SDS011;62818;49.394;8.686;2022-08-19T00:34:17;15.57;;;13.40;;
60098;SDS011;62818;49.394;8.686;2022-08-19T00:35:17;16.00;;;13.50;;
60098;SDS011;62818;49.394;8.686;2022-08-19T00:36:20;16.65;;;12.73;;
60098;SDS011;62818;49.394;8.686;2022-08-19T00:37:23;16.20;;;13.52;;
60098;SDS011;62818;49.394;8.686;2022-08-19T00:38:27;17.08;;;12.50;;
60098;SDS011;62818;49.394;8.686;2022-08-19T00:39:30;14.93;;;12.80;;
60098;SDS011;62818;49.394;8.686;2022-08-19T00:40:30;16.00;;;13.33;;
60098;SDS011;62818;49.394;8.686;2022-08-19T00:41:33;19.23;;;13.80;;
60098;SDS011;62818;49.394;8.686;2022-08-19T00:42:36;15.43;;;13.35;;
60098;SDS011;62818;49.394;8.686;2022-08-19T00:43:39;16.17;;;13.70;;
60098;SDS011;62818;49.394;8.686;2022-08-19T00:44:41;18.67;;;13.23;;
60098;SDS011;62818;49.394;8.686;2022-08-19T00:45:47;18.30;;;13.75;;
60098;SDS011;62818;49.394;8.686;2022-08-19T00:46:51;19.08;;;13.70;;
60098;SDS011;62818;49.394;8.686;2022-08-19T00:47:54;16.42;;;13.95;;
60098;SDS011;62818;49.394;8.686;2022-08-19T00:48:55;21.07;;;13.90;;
60098;SDS011;62818;49.394;8.686;2022-08-19T00:50:00;19.95;;;13.88;;
60098;SDS011;62818;49.394;8.686;2022-08-19T00:51:03;20.45;;;13.27;;
60098;SDS011;62818;49.394;8.686;2022-08-19T00:52:09;17.25;;;13.70;;
60098;SDS011;62818;49.394;8.686;2022-08-19T00:53:20;16.55;;;12.90;;
60098;SDS011;62818;49.394;8.686;2022-08-19T00:54:27;16.95;;;13.05;;
60098;SDS011;62818;49.394;8.686;2022-08-19T00:55:31;17.00;;;13.25;;
60098;SDS011;62818;49.394;8.686;2022-08-19T00:56:33;17.15;;;13.70;;
60098;SDS011;62818;49.394;8.686;2022-08-19T00:57:35;17.63;;;13.38;;
60098;SDS011;62818;49.394;8.686;2022-08-19T00:58:40;21.23;;;13.80;;
60098;SDS011;62818;49.394;8.686;2022-08-19T00:59:42;14.57;;;12.75;;
60098;SDS011;62818;49.394;8.686;2022-08-19T01:00:48;16.10;;;13.15;;
60098;SDS011;62818;49.394;8.686;2022-08-19T01:01:48;19.75;;;13.32;;
60098;SDS011;62818;49.394;8.686;2022-08-19T01:02:49;16.63;;;13.45;;
60098;SDS011;62818;49.394;8.686;2022-08-19T01:03:50;15.88;;;13.18;;
60098;SDS011;62818;49.394;8.686;2022-08-19T01:04:53;16.48;;;13.25;;
60098;SDS011;62818;49.394;8.686;2022-08-19T01:05:54;16.23;;;14.23;;
60098;SDS011;62818;49.394;8.686;2022-08-19T01:06:56;16.55;;;13.25;;
60098;SDS011;62818;49.394;8.686;2022-08-19T01:07:59;16.83;;;12.57;;
60098;SDS011;62818;49.394;8.686;2022-08-19T01:09:06;15.95;;;13.48;;
60098;SDS011;62818;49.394;8.686;2022-08-19T01:10:09;17.42;;;13.70;;
60098;SDS011;62818;49.394;8.686;2022-08-19T01:11:16;15.90;;;13.15;;
60098;SDS011;62818;49.394;8.686;2022-08-19T01:12:19;14.95;;;12.95;;
60098;SDS011;62818;49.394;8.686;2022-08-19T01:13:23;16.75;;;13.60;;
60098;SDS011;62818;49.394;8.686;2022-08-19T01:14:30;15.05;;;13.13;;
60098;SDS011;62818;49.394;8.686;2022-08-19T01:15:32;14.63;;;12.45;;
60098;SDS011;62818;49.394;8.686;2022-08-19T01:16:45;17.20;;;13.18;;
60098;SDS011;62818;49.394;8.686;2022-08-19T01:17:48;17.92;;;13.13;;
60098;SDS011;62818;49.394;8.686;2022-08-19T01:18:52;14.77;;;12.27;;
60098;SDS011;62818;49.394;8.686;2022-08-19T01:19:56;18.40;;;13.20;;
60098;SDS011;62818;49.394;8.686;2022-08-19T01:21:02;17.17;;;12.73;;
60098;SDS011;62818;49.394;8.686;2022-08-19T01:23:23;16.40;;;13.10;;
60098;SDS011;62818;49.394;8.686;2022-08-19T01:24:42;17.40;;;13.30;;
60098;SDS011;62818;49.394;8.686;2022-08-19T01:25:49;15.30;;;13.38;;
60098;SDS011;62818;49.394;8.686;2022-08-19T01:26:54;16.23;;;13.10;;
60098;SDS011;62818;49.394;8.686;2022-08-19T01:27:54;16.43;;;14.17;;
60098;SDS011;62818;49.394;8.686;2022-08-19T01:28:57;16.50;;;13.43;;
60098;SDS011;62818;49.394;8.686;2022-08-19T01:30:04;16.42;;;13.80;;
60098;SDS011;62818;49.394;8.686;2022-08-19T01:31:15;17.35;;;13.48;;
60098;SDS011;62818;49.394;8.686;2022-08-19T01:32:26;19.52;;;13.15;;
60098;SDS011;62818;49.394;8.686;2022-08-19T01:33:30;17.15;;;13.52;;
60098;SDS011;62818;49.394;8.686;2022-08-19T01:34:31;16.10;;;13.77;;
60098;SDS011;62818;49.394;8.686;2022-08-19T01:35:34;16.27;;;13.00;;
60098;SDS011;62818;49.394;8.686;2022-08-19T01:36:42;20.63;;;13.82;;
60098;SDS011;62818;49.394;8.686;2022-08-19T01:38:53;17.17;;;13.05;;
60098;SDS011;62818;49.394;8.686;2022-08-19T01:39:55;17.08;;;13.68;;
60098;SDS011;62818;49.394;8.686;2022-08-19T01:40:58;20.27;;;14.30;;
60098;SDS011;62818;49.394;8.686;2022-08-19T01:42:01;17.83;;;14.27;;
60098;SDS011;62818;49.394;8.686;2022-08-19T01:43:03;17.35;;;13.95;;
60098;SDS011;62818;49.394;8.686;2022-08-19T01:44:05;17.02;;;13.57;;
60098;SDS011;62818;49.394;8.686;2022-08-19T01:45:10;17.02;;;13.68;;
60098;SDS011;62818;49.394;8.686;2022-08-19T01:46:16;17.98;;;14.35;;
60098;SDS011;62818;49.394;8.686;2022-08-19T01:47:18;16.63;;;13.60;;
60098;SDS011;62818;49.394;8.686;2022-08-19T01:48:19;17.67;;;14.10;;
60098;SDS011;62818;49.394;8.686;2022-08-19T01:49:26;17.60;;;13.88;;
60098;SDS011;62818;49.394;8.686;2022-08-19T01:50:26;20.70;;;14.18;;
60098;SDS011;62818;49.394;8.686;2022-08-19T01:51:28;17.38;;;14.43;;
60098;SDS011;62818;49.394;8.686;2022-08-19T01:52:30;17.17;;;12.80;;
60098;SDS011;62818;49.394;8.686;2022-08-19T01:53:30;16.93;;;14.17;;
60098;SDS011;62818;49.394;8.686;2022-08-19T01:54:36;16.27;;;13.55;;
60098;SDS011;62818;49.394;8.686;2022-08-19T01:55:38;17.30;;;13.23;;
60098;SDS011;62818;49.394;8.686;2022-08-19T01:56:42;16.27;;;13.75;;
60098;SDS011;62818;49.394;8.686;2022-08-19T01:57:43;18.07;;;13.93;;
60098;SDS011;62818;49.394;8.686;2022-08-19T01:58:52;17.23;;;13.63;;
60098;SDS011;62818;49.394;8.686;2022-08-19T02:00:05;15.40;;;13.38;;
60098;SDS011;62818;49.394;8.686;2022-08-19T02:01:13;16.15;;;13.35;;
60098;SDS011;62818;49.394;8.686;2022-08-19T02:02:14;16.37;;;13.73;;
60098;SDS011;62818;49.394;8.686;2022-08-19T02:03:15;16.87;;;13.30;;
60098;SDS011;62818;49.394;8.686;2022-08-19T02:04:18;14.80;;;13.18;;
60098;SDS011;62818;49.394;8.686;2022-08-19T02:05:19;20.30;;;15.07;;
60098;SDS011;62818;49.394;8.686;2022-08-19T02:06:21;17.77;;;13.02;;
60098;SDS011;62818;49.394;8.686;2022-08-19T02:07:21;17.33;;;13.77;;
60098;SDS011;62818;49.394;8.686;2022-08-19T02:08:22;22.33;;;13.98;;
60098;SDS011;62818;49.394;8.686;2022-08-19T02:09:28;19.10;;;15.02;;
60098;SDS011;62818;49.394;8.686;2022-08-19T02:10:31;18.33;;;13.68;;
60098;SDS011;62818;49.394;8.686;2022-08-19T02:11:32;17.17;;;14.48;;
60098;SDS011;62818;49.394;8.686;2022-08-19T02:12:35;17.20;;;13.77;;
60098;SDS011;62818;49.394;8.686;2022-08-19T02:13:36;17.02;;;14.63;;
60098;SDS011;62818;49.394;8.686;2022-08-19T02:14:36;16.67;;;14.20;;
60098;SDS011;62818;49.394;8.686;2022-08-19T02:15:42;16.17;;;13.48;;
60098;SDS011;62818;49.394;8.686;2022-08-19T02:16:43;15.82;;;14.02;;
60098;SDS011;62818;49.394;8.686;2022-08-19T02:17:43;17.90;;;13.60;;
60098;SDS011;62818;49.394;8.686;2022-08-19T02:18:47;18.15;;;13.85;;
60098;SDS011;62818;49.394;8.686;2022-08-19T02:19:50;17.00;;;14.25;;
60098;SDS011;62818;49.394;8.686;2022-08-19T02:20:53;17.27;;;13.65;;
60098;SDS011;62818;49.394;8.686;2022-08-19T02:21:54;18.08;;;14.07;;
60098;SDS011;62818;49.394;8.686;2022-08-19T02:22:54;15.33;;;13.03;;
60098;SDS011;62818;49.394;8.686;2022-08-19T02:23:57;17.30;;;13.77;;
60098;SDS011;62818;49.394;8.686;2022-08-19T02:24:58;19.23;;;13.75;;
60098;SDS011;62818;49.394;8.686;2022-08-19T02:25:58;19.13;;;14.13;;
60098;SDS011;62818;49.394;8.686;2022-08-19T02:26:59;20.33;;;13.70;;
60098;SDS011;62818;49.394;8.686;2022-08-19T02:28:03;16.30;;;13.45;;
60098;SDS011;62818;49.394;8.686;2022-08-19T02:29:07;15.30;;;13.25;;
60098;SDS011;62818;49.394;8.686;2022-08-19T02:30:12;18.38;;;14.15;;
60098;SDS011;62818;49.394;8.686;2022-08-19T02:31:17;15.43;;;13.57;;
60098;SDS011;62818;49.394;8.686;2022-08-19T02:32:20;15.98;;;13.63;;
60098;SDS011;62818;49.394;8.686;2022-08-19T02:33:23;14.70;;;13.13;;
60098;SDS011;62818;49.394;8.686;2022-08-19T02:34:24;15.70;;;12.37;;
60098;SDS011;62818;49.394;8.686;2022-08-19T02:35:27;15.35;;;13.27;;
60098;SDS011;62818;49.394;8.686;2022-08-19T02:36:27;15.25;;;13.65;;
60098;SDS011;62818;49.394;8.686;2022-08-19T02:37:32;16.50;;;13.85;;
60098;SDS011;62818;49.394;8.686;2022-08-19T02:38:51;16.25;;;13.52;;
60098;SDS011;62818;49.394;8.686;2022-08-19T02:42:02;17.98;;;14.43;;
60098;SDS011;62818;49.394;8.686;2022-08-19T02:43:06;17.35;;;13.23;;
60098;SDS011;62818;49.394;8.686;2022-08-19T02:44:17;17.92;;;14.32;;
60098;SDS011;62818;49.394;8.686;2022-08-19T02:45:18;16.30;;;14.20;;
60098;SDS011;62818;49.394;8.686;2022-08-19T02:46:22;17.40;;;13.90;;
60098;SDS011;62818;49.394;8.686;2022-08-19T02:47:28;18.30;;;13.82;;
60098;SDS011;62818;49.394;8.686;2022-08-19T02:48:29;15.77;;;13.40;;
60098;SDS011;62818;49.394;8.686;2022-08-19T02:49:35;16.83;;;13.40;;
60098;SDS011;62818;49.394;8.686;2022-08-19T02:50:38;16.13;;;12.80;;
60098;SDS011;62818;49.394;8.686;2022-08-19T02:51:42;18.90;;;13.60;;
60098;SDS011;62818;49.394;8.686;2022-08-19T02:52:49;17.10;;;12.90;;
60098;SDS011;62818;49.394;8.686;2022-08-19T02:53:50;16.10;;;12.85;;
60098;SDS011;62818;49.394;8.686;2022-08-19T02:54:53;15.00;;;13.40;;
60098;SDS011;62818;49.394;8.686;2022-08-19T02:55:57;15.57;;;12.70;;
60098;SDS011;62818;49.394;8.686;2022-08-19T02:56:58;16.73;;;12.90;;
60098;SDS011;62818;49.394;8.686;2022-08-19T02:58:01;16.90;;;13.20;;
60098;SDS011;62818;49.394;8.686;2022-08-19T02:59:02;17.08;;;13.57;;
60098;SDS011;62818;49.394;8.686;2022-08-19T03:00:09;16.55;;;13.95;;
60098;SDS011;62818;49.394;8.686;2022-08-19T03:01:23;17.30;;;13.70;;
60098;SDS011;62818;49.394;8.686;2022-08-19T03:02:30;15.80;;;12.93;;
60098;SDS011;62818;49.394;8.686;2022-08-19T03:03:30;15.03;;;12.23;;
60098;SDS011;62818;49.394;8.686;2022-08-19T03:04:36;19.08;;;13.90;;
60098;SDS011;62818;49.394;8.686;2022-08-19T03:05:42;20.27;;;14.73;;
60098;SDS011;62818;49.394;8.686;2022-08-19T03:06:46;15.45;;;13.63;;
60098;SDS011;62818;49.394;8.686;2022-08-19T03:07:47;15.90;;;13.43;;
60098;SDS011;62818;49.394;8.686;2022-08-19T03:08:50;19.03;;;14.70;;
60098;SDS011;62818;49.394;8.686;2022-08-19T03:09:56;18.48;;;14.50;;
60098;SDS011;62818;49.394;8.686;2022-08-19T03:10:57;18.13;;;13.90;;
60098;SDS011;62818;49.394;8.686;2022-08-19T03:12:02;17.80;;;14.20;;
60098;SDS011;62818;49.394;8.686;2022-08-19T03:13:04;20.55;;;15.15;;
60098;SDS011;62818;49.394;8.686;2022-08-19T03:14:09;18.23;;;14.57;;
60098;SDS011;62818;49.394;8.686;2022-08-19T03:15:10;15.45;;;13.80;;
60098;SDS011;62818;49.394;8.686;2022-08-19T03:16:11;16.67;;;13.93;;
60098;SDS011;62818;49.394;8.686;2022-08-19T03:17:14;20.30;;;14.25;;
60098;SDS011;62818;49.394;8.686;2022-08-19T03:18:15;18.92;;;14.00;;
60098;SDS011;62818;49.394;8.686;2022-08-19T03:19:19;16.20;;;14.20;;
60098;SDS011;62818;49.394;8.686;2022-08-19T03:20:21;17.92;;;14.75;;
60098;SDS011;62818;49.394;8.686;2022-08-19T03:21:23;15.63;;;13.63;;
60098;SDS011;62818;49.394;8.686;2022-08-19T03:22:30;20.00;;;13.05;;
60098;SDS011;62818;49.394;8.686;2022-08-19T03:23:33;28.08;;;15.10;;
60098;SDS011;62818;49.394;8.686;2022-08-19T03:24:38;16.65;;;13.23;;
60098;SDS011;62818;49.394;8.686;2022-08-19T03:25:40;15.77;;;13.73;;
60098;SDS011;62818;49.394;8.686;2022-08-19T03:26:48;17.88;;;13.68;;
60098;SDS011;62818;49.394;8.686;2022-08-19T03:27:57;17.63;;;14.13;;
60098;SDS011;62818;49.394;8.686;2022-08-19T03:29:00;19.73;;;14.27;;
60098;SDS011;62818;49.394;8.686;2022-08-19T03:30:04;16.38;;;13.70;;
60098;SDS011;62818;49.394;8.686;2022-08-19T03:31:08;22.88;;;14.68;;
60098;SDS011;62818;49.394;8.686;2022-08-19T03:32:14;18.08;;;14.63;;
60098;SDS011;62818;49.394;8.686;2022-08-19T03:33:14;18.43;;;14.07;;
60098;SDS011;62818;49.394;8.686;2022-08-19T03:34:19;20.17;;;14.87;;
60098;SDS011;62818;49.394;8.686;2022-08-19T03:35:31;16.92;;;13.60;;
60098;SDS011;62818;49.394;8.686;2022-08-19T03:36:32;16.70;;;14.02;;
60098;SDS011;62818;49.394;8.686;2022-08-19T03:37:32;17.97;;;14.70;;
60098;SDS011;62818;49.394;8.686;2022-08-19T03:38:33;17.50;;;14.82;;
60098;SDS011;62818;49.394;8.686;2022-08-19T03:39:43;17.58;;;14.48;;
60098;SDS011;62818;49.394;8.686;2022-08-19T03:40:49;17.92;;;13.98;;
60098;SDS011;62818;49.394;8.686;2022-08-19T03:41:51;16.03;;;14.20;;
60098;SDS011;62818;49.394;8.686;2022-08-19T03:42:56;17.33;;;14.75;;
60098;SDS011;62818;49.394;8.686;2022-08-19T03:43:57;18.40;;;14.75;;
60098;SDS011;62818;49.394;8.686;2022-08-19T03:45:02;19.23;;;14.43;;
60098;SDS011;62818;49.394;8.686;2022-08-19T03:46:13;17.67;;;14.10;;
60098;SDS011;62818;49.394;8.686;2022-08-19T03:47:17;15.68;;;13.77;;
60098;SDS011;62818;49.394;8.686;2022-08-19T03:48:19;18.70;;;13.98;;
60098;SDS011;62818;49.394;8.686;2022-08-19T03:49:23;19.20;;;13.65;;
60098;SDS011;62818;49.394;8.686;2022-08-19T03:50:26;19.77;;;14.77;;
60098;SDS011;62818;49.394;8.686;2022-08-19T03:51:28;18.00;;;14.53;;
60098;SDS011;62818;49.394;8.686;2022-08-19T03:52:40;17.73;;;15.15;;
60098;SDS011;62818;49.394;8.686;2022-08-19T03:53:47;18.02;;;14.80;;
60098;SDS011;62818;49.394;8.686;2022-08-19T03:54:51;16.52;;;14.30;;
60098;SDS011;62818;49.394;8.686;2022-08-19T03:55:51;19.83;;;14.33;;
60098;SDS011;62818;49.394;8.686;2022-08-19T03:56:56;17.88;;;14.80;;
60098;SDS011;62818;49.394;8.686;2022-08-19T03:57:57;16.75;;;14.80;;
60098;SDS011;62818;49.394;8.686;2022-08-19T03:58:58;16.27;;;14.52;;
60098;SDS011;62818;49.394;8.686;2022-08-19T03:59:59;18.83;;;13.65;;
60098;SDS011;62818;49.394;8.686;2022-08-19T04:01:09;18.05;;;14.80;;
60098;SDS011;62818;49.394;8.686;2022-08-19T04:02:13;16.52;;;14.30;;
60098;SDS011;62818;49.394;8.686;2022-08-19T04:03:16;17.63;;;13.75;;
60098;SDS011;62818;49.394;8.686;2022-08-19T04:04:18;17.83;;;14.45;;
60098;SDS011;62818;49.394;8.686;2022-08-19T04:05:21;17.15;;;15.02;;
60098;SDS011;62818;49.394;8.686;2022-08-19T04:06:29;17.83;;;14.60;;
60098;SDS011;62818;49.394;8.686;2022-08-19T04:07:34;22.17;;;15.23;;
60098;SDS011;62818;49.394;8.686;2022-08-19T04:08:35;18.38;;;14.85;;
60098;SDS011;62818;49.394;8.686;2022-08-19T04:09:36;22.37;;;15.37;;
60098;SDS011;62818;49.394;8.686;2022-08-19T04:10:37;23.42;;;17.05;;
60098;SDS011;62818;49.394;8.686;2022-08-19T04:11:43;17.90;;;15.10;;
60098;SDS011;62818;49.394;8.686;2022-08-19T04:12:47;24.50;;;16.13;;
60098;SDS011;62818;49.394;8.686;2022-08-19T04:13:48;18.40;;;15.00;;
60098;SDS011;62818;49.394;8.686;2022-08-19T04:14:52;19.75;;;15.48;;
60098;SDS011;62818;49.394;8.686;2022-08-19T04:15:52;19.33;;;15.73;;
60098;SDS011;62818;49.394;8.686;2022-08-19T04:16:55;17.98;;;15.55;;
60098;SDS011;62818;49.394;8.686;2022-08-19T04:17:57;17.23;;;14.85;;
60098;SDS011;62818;49.394;8.686;2022-08-19T04:19:00;19.00;;;15.87;;
60098;SDS011;62818;49.394;8.686;2022-08-19T04:20:03;20.92;;;15.32;;
60098;SDS011;62818;49.394;8.686;2022-08-19T04:21:07;19.83;;;15.32;;
60098;SDS011;62818;49.394;8.686;2022-08-19T04:22:08;19.40;;;15.75;;
60098;SDS011;62818;49.394;8.686;2022-08-19T04:23:11;19.05;;;15.20;;
60098;SDS011;62818;49.394;8.686;2022-08-19T04:24:17;19.20;;;16.27;;
60098;SDS011;62818;49.394;8.686;2022-08-19T04:25:19;18.65;;;15.15;;
60098;SDS011;62818;49.394;8.686;2022-08-19T04:26:23;18.07;;;15.33;;
60098;SDS011;62818;49.394;8.686;2022-08-19T04:27:27;21.02;;;16.02;;
60098;SDS011;62818;49.394;8.686;2022-08-19T04:28:31;20.40;;;14.90;;
60098;SDS011;62818;49.394;8.686;2022-08-19T04:29:36;19.42;;;15.43;;
60098;SDS011;62818;49.394;8.686;2022-08-19T04:30:40;19.05;;;14.77;;
60098;SDS011;62818;49.394;8.686;2022-08-19T04:31:48;19.30;;;14.95;;
60098;SDS011;62818;49.394;8.686;2022-08-19T04:32:49;19.30;;;15.70;;
60098;SDS011;62818;49.394;8.686;2022-08-19T04:33:53;20.45;;;14.95;;
60098;SDS011;62818;49.394;8.686;2022-08-19T04:35:00;21.40;;;15.48;;
60098;SDS011;62818;49.394;8.686;2022-08-19T04:36:06;19.48;;;15.13;;
60098;SDS011;62818;49.394;8.686;2022-08-19T04:37:17;27.30;;;15.55;;
60098;SDS011;62818;49.394;8.686;2022-08-19T04:38:20;18.43;;;15.33;;
60098;SDS011;62818;49.394;8.686;2022-08-19T04:39:28;19.90;;;15.77;;
60098;SDS011;62818;49.394;8.686;2022-08-19T04:40:51;20.23;;;15.35;;
60098;SDS011;62818;49.394;8.686;2022-08-19T04:42:10;20.33;;;16.27;;
60098;SDS011;62818;49.394;8.686;2022-08-19T04:43:33;18.80;;;15.68;;
60098;SDS011;62818;49.394;8.686;2022-08-19T04:44:40;20.63;;;16.42;;
60098;SDS011;62818;49.394;8.686;2022-08-19T04:45:41;21.20;;;16.43;;
60098;SDS011;62818;49.394;8.686;2022-08-19T04:46:44;19.02;;;15.23;;
60098;SDS011;62818;49.394;8.686;2022-08-19T04:47:47;22.60;;;17.13;;
60098;SDS011;62818;49.394;8.686;2022-08-19T04:49:00;21.80;;;16.77;;
60098;SDS011;62818;49.394;8.686;2022-08-19T04:50:05;20.85;;;16.77;;
60098;SDS011;62818;49.394;8.686;2022-08-19T04:51:09;21.75;;;17.27;;
60098;SDS011;62818;49.394;8.686;2022-08-19T04:52:13;19.90;;;16.10;;
60098;SDS011;62818;49.394;8.686;2022-08-19T04:53:15;19.15;;;16.80;;
60098;SDS011;62818;49.394;8.686;2022-08-19T04:54:18;21.75;;;16.30;;
60098;SDS011;62818;49.394;8.686;2022-08-19T04:55:22;20.10;;;15.68;;
60098;SDS011;62818;49.394;8.686;2022-08-19T04:56:25;19.42;;;15.98;;
60098;SDS011;62818;49.394;8.686;2022-08-19T04:57:29;22.83;;;17.38;;
60098;SDS011;62818;49.394;8.686;2022-08-19T04:58:34;23.17;;;17.48;;
60098;SDS011;62818;49.394;8.686;2022-08-19T04:59:44;19.23;;;16.60;;
60098;SDS011;62818;49.394;8.686;2022-08-19T05:00:45;22.95;;;16.38;;
60098;SDS011;62818;49.394;8.686;2022-08-19T05:01:45;22.07;;;16.83;;
60098;SDS011;62818;49.394;8.686;2022-08-19T05:02:50;25.88;;;17.40;;
60098;SDS011;62818;49.394;8.686;2022-08-19T05:03:51;22.75;;;17.05;;
60098;SDS011;62818;49.394;8.686;2022-08-19T05:04:56;26.95;;;17.10;;
60098;SDS011;62818;49.394;8.686;2022-08-19T05:06:07;24.85;;;16.92;;
60098;SDS011;62818;49.394;8.686;2022-08-19T05:07:13;26.70;;;17.95;;
60098;SDS011;62818;49.394;8.686;2022-08-19T05:08:17;21.65;;;17.63;;
60098;SDS011;62818;49.394;8.686;2022-08-19T05:09:26;22.02;;;18.02;;
60098;SDS011;62818;49.394;8.686;2022-08-19T05:10:32;21.33;;;17.80;;
60098;SDS011;62818;49.394;8.686;2022-08-19T05:11:38;24.85;;;17.50;;
60098;SDS011;62818;49.394;8.686;2022-08-19T05:12:39;21.25;;;16.25;;
60098;SDS011;62818;49.394;8.686;2022-08-19T05:13:39;20.67;;;16.75;;
60098;SDS011;62818;49.394;8.686;2022-08-19T05:14:43;21.30;;;16.80;;
60098;SDS011;62818;49.394;8.686;2022-08-19T05:15:53;24.10;;;17.70;;
60098;SDS011;62818;49.394;8.686;2022-08-19T05:17:00;23.17;;;17.33;;
60098;SDS011;62818;49.394;8.686;2022-08-19T05:18:00;25.45;;;17.35;;
60098;SDS011;62818;49.394;8.686;2022-08-19T05:19:22;21.27;;;16.95;;
60098;SDS011;62818;49.394;8.686;2022-08-19T05:20:41;19.25;;;16.00;;
60098;SDS011;62818;49.394;8.686;2022-08-19T05:22:00;18.95;;;16.73;;
60098;SDS011;62818;49.394;8.686;2022-08-19T05:23:20;22.42;;;18.23;;
60098;SDS011;62818;49.394;8.686;2022-08-19T05:24:21;21.27;;;17.60;;
60098;SDS011;62818;49.394;8.686;2022-08-19T05:25:23;20.58;;;16.67;;
60098;SDS011;62818;49.394;8.686;2022-08-19T05:26:26;21.42;;;16.65;;
60098;SDS011;62818;49.394;8.686;2022-08-19T05:27:32;20.90;;;17.48;;
60098;SDS011;62818;49.394;8.686;2022-08-19T05:28:33;20.55;;;17.40;;
60098;SDS011;62818;49.394;8.686;2022-08-19T05:29:38;25.42;;;18.13;;
60098;SDS011;62818;49.394;8.686;2022-08-19T05:30:46;21.85;;;17.45;;
60098;SDS011;62818;49.394;8.686;2022-08-19T05:31:51;20.27;;;16.33;;
60098;SDS011;62818;49.394;8.686;2022-08-19T05:32:54;23.10;;;16.25;;
60098;SDS011;62818;49.394;8.686;2022-08-19T05:33:57;20.13;;;16.77;;
60098;SDS011;62818;49.394;8.686;2022-08-19T05:34:58;23.00;;;16.92;;
60098;SDS011;62818;49.394;8.686;2022-08-19T05:35:59;20.80;;;16.40;;
60098;SDS011;62818;49.394;8.686;2022-08-19T05:37:04;18.27;;;16.08;;
60098;SDS011;62818;49.394;8.686;2022-08-19T05:38:07;23.27;;;16.25;;
60098;SDS011;62818;49.394;8.686;2022-08-19T05:39:15;21.77;;;17.92;;
60098;SDS011;62818;49.394;8.686;2022-08-19T05:40:19;21.55;;;16.10;;
60098;SDS011;62818;49.394;8.686;2022-08-19T05:41:22;26.17;;;17.20;;
60098;SDS011;62818;49.394;8.686;2022-08-19T05:42:30;23.38;;;16.55;;
60098;SDS011;62818;49.394;8.686;2022-08-19T05:43:31;21.65;;;16.20;;
60098;SDS011;62818;49.394;8.686;2022-08-19T05:44:36;22.92;;;17.42;;
60098;SDS011;62818;49.394;8.686;2022-08-19T05:45:44;21.10;;;16.03;;
60098;SDS011;62818;49.394;8.686;2022-08-19T05:46:46;19.73;;;15.77;;
60098;SDS011;62818;49.394;8.686;2022-08-19T05:47:52;25.27;;;17.27;;
60098;SDS011;62818;49.394;8.686;2022-08-19T05:48:55;26.75;;;16.60;;
60098;SDS011;62818;49.394;8.686;2022-08-19T05:50:00;24.55;;;17.00;;
60098;SDS011;62818;49.394;8.686;2022-08-19T05:51:05;23.17;;;16.30;;
60098;SDS011;62818;49.394;8.686;2022-08-19T05:52:11;24.08;;;17.38;;
60098;SDS011;62818;49.394;8.686;2022-08-19T05:53:15;24.75;;;16.85;;
60098;SDS011;62818;49.394;8.686;2022-08-19T05:54:17;24.13;;;17.00;;
60098;SDS011;62818;49.394;8.686;2022-08-19T05:55:22;23.55;;;17.35;;
60098;SDS011;62818;49.394;8.686;2022-08-19T05:56:28;25.42;;;18.42;;
60098;SDS011;62818;49.394;8.686;2022-08-19T05:57:30;25.05;;;17.48;;
60098;SDS011;62818;49.394;8.686;2022-08-19T05:58:31;22.60;;;17.52;;
60098;SDS011;62818;49.394;8.686;2022-08-19T05:59:34;23.85;;;18.75;;
60098;SDS011;62818;49.394;8.686;2022-08-19T06:00:40;24.05;;;18.17;;
60098;SDS011;62818;49.394;8.686;2022-08-19T06:01:44;22.00;;;17.88;;
60098;SDS011;62818;49.394;8.686;2022-08-19T06:02:46;24.13;;;17.63;;
60098;SDS011;62818;49.394;8.686;2022-08-19T06:03:47;26.80;;;19.35;;
60098;SDS011;62818;49.394;8.686;2022-08-19T06:04:47;23.70;;;16.93;;
60098;SDS011;62818;49.394;8.686;2022-08-19T06:05:50;22.38;;;17.42;;
60098;SDS011;62818;49.394;8.686;2022-08-19T06:06:52;24.93;;;19.20;;
60098;SDS011;62818;49.394;8.686;2022-08-19T06:07:56;27.60;;;17.85;;
60098;SDS011;62818;49.394;8.686;2022-08-19T06:08:56;23.15;;;17.85;;
60098;SDS011;62818;49.394;8.686;2022-08-19T06:09:57;21.87;;;18.53;;
60098;SDS011;62818;49.394;8.686;2022-08-19T06:10:57;30.43;;;18.63;;
60098;SDS011;62818;49.394;8.686;2022-08-19T06:12:16;24.38;;;18.27;;
60098;SDS011;62818;49.394;8.686;2022-08-19T06:13:19;23.85;;;17.48;;
60098;SDS011;62818;49.394;8.686;2022-08-19T06:14:21;29.63;;;18.85;;
60098;SDS011;62818;49.394;8.686;2022-08-19T06:15:25;25.02;;;18.05;;
60098;SDS011;62818;49.394;8.686;2022-08-19T06:16:27;22.13;;;17.95;;
60098;SDS011;62818;49.394;8.686;2022-08-19T06:17:35;29.52;;;18.13;;
60098;SDS011;62818;49.394;8.686;2022-08-19T06:18:38;23.20;;;18.42;;
60098;SDS011;62818;49.394;8.686;2022-08-19T06:19:38;27.07;;;18.33;;
60098;SDS011;62818;49.394;8.686;2022-08-19T06:20:43;23.63;;;17.98;;